CheckWX is a tool to help pilots better visualize weather data.  It is not intended as a substitute for an official pre-flight weather briefing.

02:03:31 UTC

KSNA TAF
John Wayne-Orange County Airport
Santa Ana, California, USA
KSNA 240520Z 2406/2506 VRB05KT P6SM FEW015 FM240900 VRB04KT P6SM BKN015 FM241700 VRB04KT P6SM SCT015 FM242000 22010KT P6SM SKC FM250200 VRB04KT P6SM FEW008

May-24@
06:00 UTC

May-24 @ 06:00 UTC

May-24@
09:00 UTC

May-24 @ 09:00 UTC

TAF KSNA 240520Z 2406/2506 VRB05KT P6SM FEW015

Expired

Wind
  • Variable at 5 KTS
Cloud Levels
  • Few at 1,500' AGL

May-24@
09:00 UTC

May-24 @ 09:00 UTC

May-24@
17:00 UTC

May-24 @ 17:00 UTC

FM240900 VRB04KT P6SM BKN015

Expired

Wind
  • Variable at 4 KTS
Cloud Levels
  • Broken at 1,500' AGL

May-24@
17:00 UTC

May-24 @ 17:00 UTC

May-24@
20:00 UTC

May-24 @ 20:00 UTC

FM241700 VRB04KT P6SM SCT015

Expired

Wind
  • Variable at 4 KTS
Cloud Levels
  • Scattered at 1,500' AGL

May-24@
20:00 UTC

May-24 @ 20:00 UTC

May-25@
02:00 UTC

May-25 @ 02:00 UTC

FM242000 22010KT P6SM SKC

Expired

Wind
  • 220° at 10 KTS
Cloud Levels
  • Clear skies

May-25@
02:00 UTC

May-25 @ 02:00 UTC

May-25@
06:00 UTC

May-25 @ 06:00 UTC

FM250200 VRB04KT P6SM FEW008

From

From Standard forecast or significant change

Wind
  • Variable at 4 KTS
Cloud Levels
  • Few at 800' AGL